createdAt,value
2022-08-10T00:02:19.147Z,1.90
2022-08-10T00:04:46.817Z,1.90
2022-08-10T00:07:14.500Z,1.85
2022-08-10T00:09:50.984Z,2.08
2022-08-10T00:12:20.348Z,2.00
2022-08-10T00:14:48.552Z,1.80
2022-08-10T00:17:16.291Z,1.80
2022-08-10T00:20:02.932Z,1.90
2022-08-10T00:22:34.015Z,1.98
2022-08-10T00:25:02.553Z,1.90
2022-08-10T00:27:52.894Z,1.95
2022-08-10T00:30:18.717Z,2.03
2022-08-10T00:32:46.372Z,2.00
2022-08-10T00:35:15.349Z,1.70
2022-08-10T00:37:43.057Z,1.95
2022-08-10T00:40:35.442Z,1.90
2022-08-10T00:43:06.086Z,2.03
2022-08-10T00:45:33.807Z,2.15
2022-08-10T00:48:01.479Z,1.92
2022-08-10T00:50:30.790Z,1.85
2022-08-10T00:52:58.805Z,2.05
2022-08-10T00:55:27.281Z,2.03
2022-08-10T00:57:56.409Z,1.90
2022-08-10T01:00:24.526Z,2.00
2022-08-10T01:02:53.138Z,2.03
2022-08-10T01:05:22.018Z,1.83
2022-08-10T01:08:16.655Z,2.10
2022-08-10T01:10:53.448Z,1.98
2022-08-10T01:13:33.742Z,1.98
2022-08-10T01:16:06.919Z,2.10
2022-08-10T01:18:49.641Z,2.00
2022-08-10T01:21:53.877Z,2.13
2022-08-10T01:25:00.147Z,2.03
2022-08-10T01:27:34.976Z,2.10
2022-08-10T01:30:08.915Z,2.20
2022-08-10T01:32:50.217Z,2.10
2022-08-10T01:35:25.543Z,2.10
2022-08-10T01:38:03.334Z,2.40
2022-08-10T01:40:36.792Z,2.00
2022-08-10T01:43:09.757Z,2.00
2022-08-10T01:45:44.528Z,1.90
2022-08-10T01:48:28.632Z,2.17
2022-08-10T01:51:01.526Z,2.20
2022-08-10T01:53:41.301Z,2.00
2022-08-10T01:56:11.869Z,2.20
2022-08-10T01:58:40.628Z,2.30
2022-08-10T02:01:16.823Z,2.05
2022-08-10T02:04:03.531Z,2.22
2022-08-10T02:06:36.708Z,2.15
2022-08-10T02:09:06.466Z,2.30
2022-08-10T02:12:06.036Z,2.30
2022-08-10T02:14:25.642Z,2.20
2022-08-10T02:17:03.761Z,2.13
2022-08-10T02:19:34.504Z,2.13
2022-08-10T02:22:37.115Z,2.30
2022-08-10T02:24:53.641Z,2.47
2022-08-10T02:27:25.944Z,2.03
2022-08-10T02:29:54.724Z,2.20
2022-08-10T02:32:36.132Z,2.22
2022-08-10T02:35:13.291Z,2.17
2022-08-10T02:46:04.270Z,2.35
2022-08-10T02:48:42.055Z,2.30
2022-08-10T06:10:03.920Z,2.28
2022-08-10T06:12:55.741Z,2.50
2022-08-10T06:15:50.719Z,2.55
2022-08-10T06:18:15.357Z,2.40
2022-08-10T06:20:43.505Z,2.60
2022-08-10T06:23:12.963Z,2.47
2022-08-10T06:26:11.097Z,2.42
2022-08-10T06:28:34.117Z,2.40
2022-08-10T06:31:05.229Z,2.67
2022-08-10T06:33:36.996Z,2.50
2022-08-10T06:36:07.106Z,2.35
2022-08-10T06:38:36.917Z,2.50
2022-08-10T06:41:09.580Z,2.40
2022-08-10T06:43:41.441Z,2.40
2022-08-10T06:46:17.501Z,2.10
2022-08-10T06:48:50.737Z,2.30
2022-08-10T06:51:24.061Z,2.50
2022-08-10T06:53:55.431Z,2.20
2022-08-10T06:56:36.596Z,2.10
2022-08-10T06:59:13.341Z,2.20
2022-08-10T07:01:55.582Z,2.20
2022-08-10T07:04:31.925Z,2.10
2022-08-10T07:07:04.943Z,1.98
2022-08-10T07:09:36.002Z,1.90
2022-08-10T07:12:07.753Z,2.10
2022-08-10T07:14:39.457Z,2.20
2022-08-10T07:17:15.620Z,2.00
2022-08-10T07:19:50.493Z,1.80
2022-08-10T07:23:01.619Z,2.22
2022-08-10T07:25:13.855Z,1.80
2022-08-10T07:28:00.197Z,2.17
2022-08-10T07:30:30.650Z,1.90
2022-08-10T07:33:01.229Z,1.92
2022-08-10T07:35:36.407Z,2.22
2022-08-10T07:38:06.855Z,2.10
2022-08-10T07:40:35.667Z,2.00
2022-08-10T07:43:04.020Z,1.90
2022-08-10T07:45:34.369Z,2.35
2022-08-10T07:48:08.018Z,1.90
2022-08-10T07:50:38.574Z,1.65
2022-08-10T07:53:09.646Z,2.15
2022-08-10T07:56:05.687Z,1.60
2022-08-10T07:58:30.934Z,1.73
2022-08-10T08:01:01.206Z,1.73
2022-08-10T08:03:33.515Z,2.00
2022-08-10T08:06:09.059Z,1.95
2022-08-10T08:08:41.666Z,2.08
2022-08-10T08:11:10.331Z,1.77
2022-08-10T08:13:56.136Z,1.77
2022-08-10T08:16:25.645Z,2.10
2022-08-10T08:24:05.895Z,2.00
2022-08-10T08:24:36.911Z,1.80
2022-08-10T08:27:07.715Z,1.80
2022-08-10T08:29:38.348Z,1.73
2022-08-10T08:32:32.787Z,1.60
2022-08-10T08:35:04.509Z,1.90
2022-08-10T08:38:29.623Z,1.92
2022-08-10T08:40:26.054Z,1.85
2022-08-10T08:43:14.073Z,1.88
2022-08-10T08:46:01.937Z,1.70
2022-08-10T08:48:57.896Z,1.88
2022-08-10T08:52:07.903Z,1.63
2022-08-10T08:54:45.901Z,1.70
2022-08-10T08:57:49.511Z,2.05
2022-08-10T09:00:26.262Z,1.73
2022-08-10T09:03:35.519Z,1.50
2022-08-10T09:06:14.873Z,1.95
2022-08-10T09:09:09.316Z,1.67
2022-08-10T09:11:52.241Z,1.70
2022-08-10T09:14:27.019Z,1.70
2022-08-10T09:17:00.668Z,1.67
2022-08-10T09:19:34.955Z,1.60
2022-08-10T09:22:18.208Z,1.63
2022-08-10T09:24:55.336Z,1.70
2022-08-10T09:27:27.830Z,1.50
2022-08-10T09:29:57.292Z,1.55
2022-08-10T09:36:15.737Z,1.75
2022-08-10T09:36:27.002Z,1.30
2022-08-10T09:38:23.842Z,1.45
2022-08-10T09:41:04.077Z,1.27
2022-08-10T09:43:45.476Z,1.30
2022-08-10T09:46:27.314Z,1.48
2022-08-10T09:49:05.171Z,1.60
2022-08-10T09:51:48.064Z,1.55
2022-08-10T09:54:44.499Z,1.38
2022-08-10T09:57:44.988Z,1.40
2022-08-10T10:00:16.005Z,1.48
2022-08-10T10:02:56.228Z,1.77
2022-08-10T10:05:38.127Z,1.40
2022-08-10T10:08:17.630Z,1.52
2022-08-10T10:10:54.518Z,1.50
2022-08-10T10:13:52.728Z,1.63
2022-08-10T10:16:44.950Z,1.80
2022-08-10T10:19:36.165Z,1.60
2022-08-10T10:22:22.018Z,1.50
2022-08-10T10:24:56.837Z,1.80
2022-08-10T10:27:38.456Z,1.58
2022-08-10T10:30:10.917Z,1.50
2022-08-10T10:33:03.761Z,1.48
2022-08-10T10:35:37.988Z,1.60
2022-08-10T10:38:10.103Z,1.70
2022-08-10T10:40:44.950Z,1.83
2022-08-10T10:43:43.517Z,1.50
2022-08-10T10:46:25.688Z,1.33
2022-08-10T10:49:04.457Z,1.42
2022-08-10T10:51:39.205Z,1.70
2022-08-10T10:54:13.285Z,1.48
2022-08-10T10:56:55.271Z,1.50
2022-08-10T10:59:55.480Z,1.30
2022-08-10T11:02:47.409Z,1.90
2022-08-10T11:05:28.255Z,1.70
2022-08-10T11:08:01.010Z,1.75
2022-08-10T11:10:36.652Z,1.40
2022-08-10T11:14:26.345Z,1.52
2022-08-10T11:16:25.668Z,1.40
2022-08-10T11:19:00.034Z,1.42
2022-08-10T11:21:39.708Z,1.42
2022-08-10T11:24:48.419Z,1.30
2022-08-10T11:27:08.823Z,1.63
2022-08-10T11:29:52.823Z,1.45
2022-08-10T11:32:27.200Z,1.55
2022-08-10T11:35:11.279Z,1.50
2022-08-10T11:38:33.005Z,1.55
2022-08-10T11:40:40.282Z,1.50
2022-08-10T11:43:13.307Z,1.50
2022-08-10T11:45:51.370Z,1.50
2022-08-10T11:48:53.070Z,1.40
2022-08-10T11:51:22.366Z,1.65
2022-08-10T11:53:56.326Z,1.50
2022-08-10T11:56:31.031Z,1.70
2022-08-10T11:59:17.612Z,1.60
2022-08-10T12:01:48.162Z,1.75
2022-08-10T12:04:17.637Z,1.92
2022-08-10T12:06:56.434Z,1.45
2022-08-10T12:10:05.016Z,1.25
2022-08-10T12:12:14.204Z,1.55
2022-08-10T12:14:47.518Z,1.40
2022-08-10T12:17:21.620Z,1.65
2022-08-10T12:20:01.148Z,1.40
2022-08-10T12:22:37.594Z,1.70
2022-08-10T12:25:10.430Z,1.70
2022-08-10T12:27:42.616Z,1.58
2022-08-10T12:30:14.423Z,1.55
2022-08-10T12:32:46.468Z,1.55
2022-08-10T12:35:26.343Z,1.85
2022-08-10T12:38:06.912Z,1.65
2022-08-10T12:40:41.025Z,1.75
2022-08-10T12:44:07.806Z,1.40
2022-08-10T12:46:08.200Z,1.52
2022-08-10T12:48:39.537Z,1.52
2022-08-10T12:51:14.541Z,1.38
2022-08-10T12:53:51.088Z,1.65
2022-08-10T12:56:27.081Z,1.50
2022-08-10T12:59:01.170Z,1.48
2022-08-10T13:02:06.514Z,1.58
2022-08-10T13:04:28.832Z,1.60
2022-08-10T13:06:59.481Z,1.60
2022-08-10T13:09:29.126Z,1.60
2022-08-10T13:12:37.152Z,1.45
2022-08-10T13:14:54.213Z,1.70
2022-08-10T13:17:39.133Z,1.63
2022-08-10T13:20:17.135Z,1.67
2022-08-10T13:22:48.721Z,1.40
2022-08-10T13:25:21.256Z,1.60
2022-08-10T13:28:02.614Z,1.60
2022-08-10T13:30:40.527Z,1.67
2022-08-10T13:33:11.870Z,1.65
2022-08-10T13:35:40.243Z,1.83
2022-08-10T13:38:09.873Z,1.52
2022-08-10T13:40:40.507Z,1.70
2022-08-10T13:43:09.932Z,1.60
2022-08-10T13:45:47.901Z,1.48
2022-08-10T13:48:20.635Z,1.60
2022-08-10T13:50:51.689Z,1.75
2022-08-10T13:53:23.359Z,1.60
2022-08-10T13:55:56.855Z,1.42
2022-08-10T13:58:30.198Z,1.60
2022-08-10T14:01:00.013Z,1.48
2022-08-10T14:03:29.213Z,1.65
2022-08-10T14:05:59.328Z,1.67
2022-08-10T14:08:30.435Z,1.65
2022-08-10T14:11:11.537Z,1.70
2022-08-10T14:13:45.420Z,1.60
2022-08-10T14:16:14.501Z,1.40
2022-08-10T14:18:45.092Z,1.58
2022-08-10T14:21:13.828Z,1.58
2022-08-10T14:23:42.319Z,1.58
2022-08-10T14:26:24.464Z,1.45
2022-08-10T14:28:55.171Z,1.40
2022-08-10T14:31:30.014Z,1.52
2022-08-10T14:34:01.159Z,1.52
2022-08-10T14:36:42.376Z,1.65
2022-08-10T14:39:15.699Z,1.60
2022-08-10T14:42:03.138Z,1.15
2022-08-10T14:44:44.830Z,1.58
2022-08-10T14:47:54.230Z,1.55
2022-08-10T14:50:04.109Z,1.60
2022-08-10T14:52:44.081Z,1.77
2022-08-10T14:55:19.575Z,1.60
2022-08-10T14:58:19.646Z,1.92
2022-08-10T15:00:43.061Z,1.50
2022-08-10T15:04:00.837Z,1.45
2022-08-10T15:06:09.295Z,1.60
2022-08-10T15:08:46.948Z,1.80
2022-08-10T15:12:15.110Z,2.10
2022-08-10T15:14:15.155Z,2.05
2022-08-10T15:16:56.538Z,1.75
2022-08-10T15:20:00.866Z,1.63
2022-08-10T15:22:36.565Z,1.63
2022-08-10T15:25:18.033Z,1.70
2022-08-10T15:27:53.556Z,1.58
2022-08-10T15:30:29.823Z,1.77
2022-08-10T15:33:20.929Z,1.65
2022-08-10T15:36:08.737Z,1.60
2022-08-10T15:38:40.309Z,2.10
2022-08-10T15:41:16.072Z,1.90
2022-08-10T15:43:46.928Z,2.03
2022-08-10T15:46:29.851Z,1.42
2022-08-10T15:49:03.039Z,1.60
2022-08-10T15:51:53.587Z,1.40
2022-08-10T15:54:33.300Z,1.65
2022-08-10T15:57:04.632Z,1.83
2022-08-10T15:59:41.776Z,1.75
2022-08-10T16:02:17.503Z,1.50
2022-08-10T16:04:50.233Z,1.35
2022-08-10T16:07:22.758Z,1.70
2022-08-10T16:10:28.039Z,1.63
2022-08-10T16:13:01.134Z,1.80
2022-08-10T16:15:31.035Z,1.70
2022-08-10T16:18:02.989Z,1.50
2022-08-10T16:20:53.342Z,1.50
2022-08-10T16:23:26.003Z,1.42
2022-08-10T16:25:58.328Z,1.60
2022-08-10T16:28:33.087Z,1.50
2022-08-10T16:31:03.007Z,1.75
2022-08-10T16:33:53.148Z,1.60
2022-08-10T16:36:23.356Z,1.83
2022-08-10T16:38:53.551Z,1.50
2022-08-10T16:42:02.137Z,1.77
2022-08-10T16:44:17.417Z,1.92
2022-08-10T16:46:46.738Z,2.08
2022-08-10T16:49:19.310Z,2.30
2022-08-10T16:51:49.188Z,1.45
2022-08-10T16:54:26.282Z,1.90
2022-08-10T16:57:01.004Z,1.90
2022-08-10T16:59:31.648Z,1.80
2022-08-10T17:02:01.289Z,1.80
2022-08-10T17:04:32.222Z,1.90
2022-08-10T17:07:01.549Z,1.73
2022-08-10T17:09:32.986Z,1.88
2022-08-10T17:12:05.884Z,1.33
2022-08-10T17:14:33.892Z,1.80
2022-08-10T17:17:07.171Z,2.05
2022-08-10T17:19:40.902Z,2.00
2022-08-10T17:22:14.247Z,1.67
2022-08-10T17:24:47.266Z,1.70
2022-08-10T17:28:32.836Z,1.60
2022-08-10T17:30:13.974Z,2.10
2022-08-10T17:32:46.957Z,1.98
2022-08-10T17:35:23.606Z,1.95
2022-08-10T17:37:57.636Z,1.73
2022-08-10T17:40:28.445Z,1.92
2022-08-10T17:42:57.031Z,1.95
2022-08-10T17:45:47.749Z,1.75
2022-08-10T17:48:15.365Z,1.75
2022-08-10T17:50:50.124Z,2.00
2022-08-10T17:53:22.221Z,1.90
2022-08-10T17:55:55.408Z,1.60
2022-08-10T17:58:27.059Z,1.90
2022-08-10T18:01:38.539Z,1.75
2022-08-10T18:03:52.124Z,1.90
2022-08-10T18:06:23.056Z,2.08
2022-08-10T18:08:56.830Z,2.00
2022-08-10T18:11:29.982Z,1.73
2022-08-10T18:14:02.907Z,1.92
2022-08-10T18:16:34.054Z,2.08
2022-08-10T18:19:06.147Z,1.92
2022-08-10T18:21:40.069Z,2.22
2022-08-10T18:24:16.496Z,2.00
2022-08-10T18:26:46.998Z,2.00
2022-08-10T18:29:18.826Z,1.80
2022-08-10T18:31:49.537Z,2.15
2022-08-10T18:34:23.362Z,2.15
2022-08-10T18:36:54.169Z,2.00
2022-08-10T18:39:25.467Z,2.28
2022-08-10T18:42:00.684Z,2.20
2022-08-10T18:44:37.028Z,2.10
2022-08-10T18:47:10.434Z,2.25
2022-08-10T18:49:51.602Z,2.35
2022-08-10T18:52:24.064Z,2.05
2022-08-10T18:54:55.482Z,2.38
2022-08-10T18:57:35.879Z,2.10
2022-08-10T19:00:10.030Z,2.47
2022-08-10T19:03:06.194Z,1.88
2022-08-10T19:05:54.564Z,2.22
2022-08-10T19:08:49.213Z,2.00
2022-08-10T19:11:30.912Z,2.38
2022-08-10T19:14:04.253Z,1.73
2022-08-10T19:16:40.821Z,2.08
2022-08-10T19:19:22.945Z,4.50
2022-08-10T19:22:00.996Z,2.90
2022-08-10T19:24:44.285Z,2.20
2022-08-10T19:27:22.454Z,2.30
2022-08-10T19:30:12.102Z,2.20
2022-08-10T19:33:07.251Z,3.30
2022-08-10T19:36:03.052Z,2.75
2022-08-10T19:38:49.603Z,2.20
2022-08-10T19:41:31.872Z,2.38
2022-08-10T19:44:13.468Z,2.28
2022-08-10T19:46:45.549Z,2.20
2022-08-10T19:49:32.004Z,2.20
2022-08-10T19:52:12.009Z,2.25
2022-08-10T19:54:50.604Z,2.22
2022-08-10T19:57:30.313Z,2.03
2022-08-10T20:00:19.633Z,2.25
2022-08-10T20:03:11.818Z,2.42
2022-08-10T20:06:13.091Z,2.42
2022-08-10T20:08:45.743Z,2.38
2022-08-10T20:11:45.548Z,2.63
2022-08-10T20:14:21.584Z,2.20
2022-08-10T20:16:56.220Z,2.50
2022-08-10T20:19:53.398Z,2.35
2022-08-10T20:22:29.842Z,2.35
2022-08-10T20:25:03.372Z,2.15
2022-08-10T20:28:00.219Z,2.30
2022-08-10T20:30:30.016Z,2.10
2022-08-10T20:33:09.416Z,2.40
2022-08-10T20:35:48.364Z,2.10
2022-08-10T20:38:27.144Z,2.10
2022-08-10T20:41:04.435Z,2.40
2022-08-10T20:43:42.726Z,2.20
2022-08-10T20:46:23.507Z,2.35
2022-08-10T20:48:57.951Z,2.42
2022-08-10T20:51:59.368Z,2.40
2022-08-10T20:54:22.697Z,2.30
2022-08-10T20:57:07.079Z,1.98
2022-08-10T21:00:06.697Z,2.53
2022-08-10T21:03:06.619Z,2.40
2022-08-10T21:05:50.196Z,2.20
2022-08-10T21:08:30.087Z,2.10
2022-08-10T21:11:08.505Z,2.40
2022-08-10T21:13:55.007Z,2.47
2022-08-10T21:16:37.986Z,2.70
2022-08-10T21:19:29.995Z,2.50
2022-08-10T21:22:12.999Z,2.10
2022-08-10T21:24:52.215Z,2.10
2022-08-10T21:27:41.078Z,2.22
2022-08-10T21:30:10.175Z,2.72
2022-08-10T21:32:54.500Z,2.33
2022-08-10T21:35:36.503Z,2.50
2022-08-10T21:38:11.702Z,2.28
2022-08-10T21:41:18.322Z,2.20
2022-08-10T21:44:08.323Z,2.10
2022-08-10T21:47:07.467Z,2.40
2022-08-10T21:50:17.131Z,1.95
2022-08-10T21:53:16.790Z,2.30
2022-08-10T21:56:14.112Z,2.70
2022-08-10T21:59:06.792Z,2.40
2022-08-10T22:01:57.370Z,2.30
2022-08-10T22:04:45.470Z,2.55
2022-08-10T22:07:36.296Z,2.40
2022-08-10T22:10:26.013Z,2.25
2022-08-10T22:13:13.958Z,2.53
2022-08-10T22:16:09.856Z,2.60
2022-08-10T22:19:02.899Z,2.63
2022-08-10T22:22:04.410Z,2.50
2022-08-10T22:25:16.752Z,2.50
2022-08-10T22:28:17.777Z,2.40
2022-08-10T22:31:29.840Z,2.47
2022-08-10T22:34:24.813Z,2.47
2022-08-10T22:37:24.178Z,2.47
2022-08-10T22:40:20.805Z,2.40
2022-08-10T22:43:12.127Z,2.40
2022-08-10T22:46:05.336Z,2.60
2022-08-10T22:48:59.449Z,2.42
2022-08-10T22:51:35.619Z,2.22
2022-08-10T22:54:31.057Z,2.42
2022-08-10T22:57:18.585Z,2.63
2022-08-10T22:59:49.269Z,2.67
2022-08-10T23:02:34.125Z,2.65
2022-08-10T23:05:10.167Z,2.60
2022-08-10T23:07:47.403Z,2.40
2022-08-10T23:10:17.318Z,2.63
2022-08-10T23:12:49.770Z,2.90
2022-08-10T23:15:45.028Z,2.55
2022-08-10T23:18:36.585Z,2.80
2022-08-10T23:21:05.830Z,2.47
2022-08-10T23:28:38.729Z,2.72
2022-08-10T23:31:50.302Z,2.50
2022-08-10T23:34:12.523Z,2.53
2022-08-10T23:36:42.147Z,2.60
2022-08-10T23:39:27.360Z,2.58
2022-08-10T23:42:04.723Z,2.58
2022-08-10T23:44:42.668Z,2.85
